createdAt,value
2019-05-07T00:01:17.564Z,6.40
2019-05-07T00:03:47.134Z,6.30
2019-05-07T00:06:16.672Z,6.30
2019-05-07T00:08:46.203Z,6.30
2019-05-07T00:11:15.755Z,6.20
2019-05-07T00:13:45.289Z,6.10
2019-05-07T00:16:14.872Z,6.10
2019-05-07T00:18:44.356Z,5.90
2019-05-07T00:21:13.919Z,5.90
2019-05-07T00:23:43.485Z,5.80
2019-05-07T00:26:13.283Z,5.80
2019-05-07T00:28:43.403Z,5.70
2019-05-07T00:31:13.351Z,5.70
2019-05-07T00:33:43.376Z,5.60
2019-05-07T00:36:32.377Z,5.60
2019-05-07T00:39:13.062Z,5.60
2019-05-07T00:41:47.976Z,5.50
2019-05-07T00:44:17.788Z,5.40
2019-05-07T00:46:47.418Z,5.40
2019-05-07T00:49:17.028Z,5.40
2019-05-07T00:51:47.844Z,5.30
2019-05-07T00:54:17.380Z,5.20
2019-05-07T00:56:46.948Z,5.10
2019-05-07T00:59:16.484Z,5.00
2019-05-07T01:01:46.050Z,4.90
2019-05-07T01:04:15.594Z,4.90
2019-05-07T01:06:45.161Z,4.80
2019-05-07T01:09:14.674Z,4.70
2019-05-07T01:11:44.252Z,4.70
2019-05-07T01:14:13.747Z,4.60
2019-05-07T01:16:43.308Z,4.50
2019-05-07T01:19:12.830Z,4.40
2019-05-07T01:21:43.274Z,4.40
2019-05-07T01:24:12.911Z,4.30
2019-05-07T01:26:42.719Z,4.30
2019-05-07T01:29:12.834Z,4.20
2019-05-07T01:31:57.192Z,4.10
2019-05-07T01:34:36.315Z,4.10
2019-05-07T01:37:05.820Z,4.10
2019-05-07T01:39:35.349Z,4.20
2019-05-07T01:42:04.905Z,4.20
2019-05-07T01:44:34.455Z,4.10
2019-05-07T01:47:04.009Z,4.10
2019-05-07T01:49:33.554Z,4.20
2019-05-07T01:52:03.611Z,4.30
2019-05-07T01:54:33.577Z,4.40
2019-05-07T01:57:03.166Z,4.50
2019-05-07T01:59:32.930Z,4.50
2019-05-07T02:02:09.051Z,4.60
2019-05-07T02:04:52.159Z,4.50
2019-05-07T02:07:28.870Z,4.60
2019-05-07T02:10:09.114Z,4.50
2019-05-07T02:12:39.310Z,4.50
2019-05-07T02:15:09.061Z,4.40
2019-05-07T02:17:38.597Z,4.50
2019-05-07T02:20:08.247Z,4.50
2019-05-07T02:22:37.766Z,4.40
2019-05-07T02:25:07.313Z,4.40
2019-05-07T02:27:36.862Z,4.30
2019-05-07T02:30:06.781Z,4.30
2019-05-07T02:32:36.344Z,4.20
2019-05-07T02:35:06.038Z,4.10
2019-05-07T02:37:51.277Z,3.90
2019-05-07T02:40:25.985Z,3.90
2019-05-07T02:42:55.508Z,3.70
2019-05-07T02:45:45.799Z,3.70
2019-05-07T02:48:16.873Z,3.70
2019-05-07T02:50:55.570Z,3.60
2019-05-07T02:53:34.383Z,3.60
2019-05-07T02:56:04.020Z,3.60
2019-05-07T02:58:33.543Z,3.50
2019-05-07T03:01:04.816Z,3.40
2019-05-07T03:03:34.333Z,3.40
2019-05-07T03:06:03.871Z,3.60
2019-05-07T03:08:33.503Z,3.60
2019-05-07T03:11:03.505Z,3.60
2019-05-07T03:13:33.869Z,3.50
2019-05-07T03:16:03.958Z,3.50
2019-05-07T03:18:33.879Z,3.40
2019-05-07T03:21:12.719Z,3.40
2019-05-07T03:23:49.838Z,3.30
2019-05-07T03:26:23.117Z,3.40
2019-05-07T03:28:54.544Z,3.20
2019-05-07T03:31:56.430Z,3.10
2019-05-07T03:34:50.806Z,3.00
2019-05-07T03:37:23.626Z,2.80
2019-05-07T03:39:53.864Z,2.80
2019-05-07T03:42:23.697Z,2.70
2019-05-07T03:45:03.634Z,2.60
2019-05-07T03:47:37.395Z,2.60
2019-05-07T03:50:09.895Z,2.60
2019-05-07T03:52:42.600Z,2.60
2019-05-07T03:55:14.151Z,2.50
2019-05-07T03:57:43.722Z,2.50
2019-05-07T04:00:13.418Z,2.40
2019-05-07T04:02:43.828Z,2.40
2019-05-07T04:05:14.442Z,2.40
2019-05-07T04:07:44.174Z,2.40
2019-05-07T04:10:15.389Z,2.40
2019-05-07T04:12:44.981Z,2.50
2019-05-07T04:15:18.851Z,2.50
2019-05-07T04:17:45.664Z,2.50
2019-05-07T04:20:15.422Z,2.50
2019-05-07T04:22:44.988Z,2.50
2019-05-07T04:25:34.581Z,2.70
2019-05-07T04:28:09.688Z,2.80
2019-05-07T04:30:39.516Z,3.00
2019-05-07T04:33:13.142Z,3.30
2019-05-07T04:36:03.871Z,3.60
2019-05-07T04:38:33.628Z,3.80
2019-05-07T04:41:03.845Z,4.10
2019-05-07T04:43:33.836Z,4.50
2019-05-07T04:46:03.582Z,4.40
2019-05-07T04:48:33.990Z,4.60
2019-05-07T04:51:05.503Z,4.60
2019-05-07T04:53:35.050Z,4.80
2019-05-07T04:56:04.595Z,5.00
2019-05-07T04:58:34.135Z,5.30
2019-05-07T05:01:04.797Z,6.20
2019-05-07T05:03:38.622Z,6.30
2019-05-07T05:06:05.638Z,6.40
2019-05-07T05:08:35.179Z,6.60
2019-05-07T05:11:04.816Z,6.70
2019-05-07T05:13:34.403Z,6.60
2019-05-07T05:16:23.440Z,6.70
2019-05-07T05:18:53.105Z,6.90
2019-05-07T05:21:44.610Z,7.20
2019-05-07T05:24:18.370Z,7.40
2019-05-07T05:26:47.968Z,7.70
2019-05-07T05:29:17.987Z,7.90
2019-05-07T05:31:47.509Z,8.10
2019-05-07T05:34:17.084Z,8.30
2019-05-07T05:36:46.597Z,8.40
2019-05-07T05:39:16.116Z,8.70
2019-05-07T05:41:47.221Z,9.00
2019-05-07T05:44:31.851Z,9.20
2019-05-07T05:47:02.401Z,9.50
2019-05-07T05:49:32.266Z,9.80
2019-05-07T05:52:15.257Z,10.10
2019-05-07T05:55:06.479Z,10.50
2019-05-07T05:57:55.311Z,10.60
2019-05-07T06:00:46.819Z,10.70
2019-05-07T06:03:33.929Z,10.90
2019-05-07T06:06:22.384Z,11.20
2019-05-07T06:09:16.958Z,11.40
2019-05-07T06:11:59.377Z,11.80
2019-05-07T06:14:33.830Z,11.90
2019-05-07T06:17:28.321Z,12.10
2019-05-07T06:20:22.794Z,12.60
2019-05-07T06:23:09.830Z,13.00
2019-05-07T06:25:39.899Z,13.40
2019-05-07T06:28:09.464Z,13.90
2019-05-07T06:30:38.986Z,14.10
2019-05-07T06:33:08.524Z,14.30
2019-05-07T06:35:38.034Z,14.60
2019-05-07T06:38:09.066Z,14.90
2019-05-07T06:41:06.379Z,15.10
2019-05-07T06:43:46.066Z,15.30
2019-05-07T06:46:15.600Z,15.60
2019-05-07T06:48:46.289Z,15.60
2019-05-07T06:51:17.526Z,15.70
2019-05-07T06:53:47.216Z,15.80
2019-05-07T06:56:16.782Z,15.70
2019-05-07T06:59:02.200Z,15.70
2019-05-07T07:01:52.831Z,15.90
2019-05-07T07:04:26.046Z,16.10
2019-05-07T07:07:08.116Z,16.30
2019-05-07T07:09:59.392Z,16.70
2019-05-07T07:12:30.075Z,16.90
2019-05-07T07:14:59.738Z,16.80
2019-05-07T07:17:29.286Z,16.90
2019-05-07T07:19:58.859Z,17.20
2019-05-07T07:22:28.403Z,17.40
2019-05-07T07:24:57.913Z,17.30
2019-05-07T07:27:27.437Z,17.80
2019-05-07T07:30:07.205Z,17.90
2019-05-07T07:32:38.823Z,18.20
2019-05-07T07:35:12.866Z,18.50
2019-05-07T07:37:42.966Z,18.70
2019-05-07T07:40:36.587Z,18.80
2019-05-07T07:43:07.100Z,19.10
2019-05-07T07:45:37.016Z,19.00
2019-05-07T07:48:06.511Z,19.10
2019-05-07T07:50:36.023Z,19.30
2019-05-07T07:53:05.608Z,19.40
2019-05-07T07:55:42.488Z,19.50
2019-05-07T07:58:18.072Z,19.80
2019-05-07T08:01:03.406Z,20.20
2019-05-07T08:03:33.070Z,19.90
2019-05-07T08:06:02.581Z,19.30
2019-05-07T08:08:32.205Z,19.00
2019-05-07T08:11:02.397Z,19.00
2019-05-07T08:13:32.513Z,18.40
2019-05-07T08:16:02.565Z,17.40
2019-05-07T08:18:32.761Z,16.50
2019-05-07T08:21:02.591Z,15.80
2019-05-07T08:23:32.193Z,15.20
2019-05-07T08:26:02.516Z,14.60
2019-05-07T08:28:32.168Z,14.90
2019-05-07T08:31:36.335Z,15.90
2019-05-07T08:34:39.576Z,16.90
2019-05-07T08:37:09.103Z,18.10
2019-05-07T08:39:38.652Z,18.50
2019-05-07T08:42:08.331Z,18.70
2019-05-07T08:44:59.696Z,19.10
2019-05-07T08:47:37.867Z,19.00
2019-05-07T08:50:08.659Z,19.20
2019-05-07T08:52:38.276Z,19.60
2019-05-07T08:55:08.159Z,19.80
2019-05-07T08:57:37.797Z,20.00
2019-05-07T09:00:07.747Z,20.60
2019-05-07T09:02:37.279Z,20.60
2019-05-07T09:05:09.218Z,20.80
2019-05-07T09:07:38.339Z,20.70
2019-05-07T09:10:08.055Z,19.50
2019-05-07T09:12:37.616Z,19.10
2019-05-07T09:15:07.259Z,19.90
2019-05-07T09:17:36.808Z,20.70
2019-05-07T09:20:09.133Z,20.30
2019-05-07T09:22:37.727Z,20.80
2019-05-07T09:25:07.875Z,21.10
2019-05-07T09:27:42.422Z,21.10
2019-05-07T09:30:24.899Z,21.50
2019-05-07T09:33:02.504Z,21.70
2019-05-07T09:35:39.648Z,21.80
2019-05-07T09:38:07.931Z,20.90
2019-05-07T09:40:37.450Z,19.80
2019-05-07T09:43:07.035Z,19.10
2019-05-07T09:45:36.537Z,18.30
2019-05-07T09:48:06.219Z,17.80
2019-05-07T09:50:35.745Z,17.20
2019-05-07T09:53:12.768Z,16.70
2019-05-07T09:55:45.681Z,16.50
2019-05-07T09:58:15.267Z,16.40
2019-05-07T10:00:44.889Z,16.00
2019-05-07T10:03:14.665Z,15.90
2019-05-07T10:05:44.182Z,15.40
2019-05-07T10:08:13.849Z,15.00
2019-05-07T10:10:44.905Z,14.90
2019-05-07T10:13:32.989Z,15.10
2019-05-07T10:16:04.260Z,15.30
2019-05-07T10:18:42.570Z,15.30
2019-05-07T10:21:12.759Z,15.30
2019-05-07T10:23:42.355Z,15.60
2019-05-07T10:26:12.149Z,15.70
2019-05-07T10:28:42.505Z,16.00
2019-05-07T10:31:11.981Z,16.00
2019-05-07T10:33:42.191Z,16.00
2019-05-07T10:36:12.501Z,16.00
2019-05-07T10:38:42.267Z,15.80
2019-05-07T10:41:12.216Z,15.50
2019-05-07T10:43:42.865Z,15.20
2019-05-07T10:46:34.123Z,15.30
2019-05-07T10:49:13.531Z,15.40
2019-05-07T10:51:43.098Z,15.30
2019-05-07T10:54:12.678Z,15.10
2019-05-07T10:56:42.315Z,15.30
2019-05-07T10:59:12.285Z,15.20
2019-05-07T11:01:52.052Z,15.10
2019-05-07T11:04:22.242Z,15.30
2019-05-07T11:06:52.293Z,15.10
2019-05-07T11:09:22.232Z,14.70
2019-05-07T11:11:51.943Z,14.60
2019-05-07T11:14:21.788Z,14.70
2019-05-07T11:17:03.450Z,14.70
2019-05-07T11:19:32.998Z,14.80
2019-05-07T11:22:02.527Z,14.90
2019-05-07T11:24:32.156Z,15.30
2019-05-07T11:27:02.405Z,15.70
2019-05-07T11:29:32.770Z,15.70
2019-05-07T11:32:03.260Z,15.90
2019-05-07T11:34:36.747Z,15.80
2019-05-07T11:37:06.334Z,15.80
2019-05-07T11:39:35.854Z,15.80
2019-05-07T11:42:30.343Z,15.60
2019-05-07T11:45:02.065Z,15.30
2019-05-07T11:47:32.659Z,15.20
2019-05-07T11:50:25.184Z,15.60
2019-05-07T11:52:57.880Z,15.90
2019-05-07T11:55:27.458Z,16.80
2019-05-07T11:57:57.030Z,17.40
2019-05-07T12:00:37.386Z,17.90
2019-05-07T12:03:06.921Z,17.90
2019-05-07T12:05:36.470Z,18.00
2019-05-07T12:08:06.030Z,17.90
2019-05-07T12:10:35.650Z,18.10
2019-05-07T12:13:05.182Z,18.40
2019-05-07T12:15:34.703Z,18.60
2019-05-07T12:18:04.360Z,19.10
2019-05-07T12:20:33.894Z,19.50
2019-05-07T12:23:03.418Z,19.80
2019-05-07T12:25:32.975Z,19.30
2019-05-07T12:28:02.765Z,18.80
2019-05-07T12:30:51.626Z,18.70
2019-05-07T12:33:39.630Z,18.80
2019-05-07T12:36:12.425Z,19.40
2019-05-07T12:38:41.811Z,18.60
2019-05-07T12:41:28.832Z,17.90
2019-05-07T12:43:59.028Z,17.90
2019-05-07T12:46:28.908Z,18.00
2019-05-07T12:48:58.474Z,18.50
2019-05-07T12:51:34.525Z,18.50
2019-05-07T12:54:18.313Z,18.00
2019-05-07T12:56:47.807Z,17.50
2019-05-07T12:59:17.325Z,17.30
2019-05-07T13:02:26.676Z,17.60
2019-05-07T13:04:45.785Z,18.30
2019-05-07T13:07:32.608Z,18.50
2019-05-07T13:10:02.631Z,18.70
2019-05-07T13:12:32.301Z,18.10
2019-05-07T13:15:02.995Z,17.60
2019-05-07T13:17:33.788Z,17.30
2019-05-07T13:20:03.401Z,17.10
2019-05-07T13:22:32.968Z,17.40
2019-05-07T13:25:02.559Z,17.50
2019-05-07T13:27:32.123Z,17.80
2019-05-07T13:30:02.583Z,18.10
2019-05-07T13:32:34.363Z,18.40
2019-05-07T13:35:04.050Z,18.30
2019-05-07T13:37:35.517Z,18.20
2019-05-07T13:40:42.503Z,17.90
2019-05-07T13:43:18.559Z,18.00
2019-05-07T13:45:55.439Z,17.90
2019-05-07T13:48:25.411Z,17.70
2019-05-07T13:50:55.229Z,17.70
2019-05-07T13:53:24.932Z,17.70
2019-05-07T13:55:54.460Z,17.80
2019-05-07T13:58:24.005Z,17.80
2019-05-07T14:01:12.606Z,17.10
2019-05-07T14:03:42.328Z,16.40
2019-05-07T14:06:13.544Z,15.90
2019-05-07T14:08:44.773Z,16.00
2019-05-07T14:11:14.324Z,16.10
2019-05-07T14:13:43.869Z,15.80
2019-05-07T14:16:13.934Z,15.70
2019-05-07T14:18:43.443Z,15.70
2019-05-07T14:21:13.187Z,15.60
2019-05-07T14:23:42.868Z,15.40
2019-05-07T14:26:12.473Z,15.20
2019-05-07T14:28:42.373Z,15.30
2019-05-07T14:31:12.312Z,15.30
2019-05-07T14:34:05.676Z,15.30
2019-05-07T14:36:42.639Z,15.10
2019-05-07T14:39:12.184Z,15.10
2019-05-07T14:41:42.738Z,15.00
2019-05-07T14:44:14.562Z,15.00
2019-05-07T14:46:50.844Z,14.90
2019-05-07T14:49:15.377Z,14.90
2019-05-07T14:51:45.132Z,15.00
2019-05-07T14:54:14.768Z,14.90
2019-05-07T14:56:44.513Z,14.80
2019-05-07T14:59:14.054Z,14.70
2019-05-07T15:01:43.611Z,14.60
2019-05-07T15:04:13.297Z,14.60
2019-05-07T15:06:42.808Z,14.60
2019-05-07T15:09:12.336Z,14.70
2019-05-07T15:11:42.462Z,14.80
2019-05-07T15:14:12.412Z,14.80
2019-05-07T15:16:42.642Z,14.90
2019-05-07T15:19:12.625Z,14.90
2019-05-07T15:21:42.756Z,14.80
2019-05-07T15:24:14.165Z,14.70
2019-05-07T15:26:43.821Z,14.70
2019-05-07T15:29:14.336Z,14.80
2019-05-07T15:32:03.218Z,15.00
2019-05-07T15:34:32.884Z,15.10
2019-05-07T15:37:02.504Z,15.10
2019-05-07T15:39:32.825Z,15.10
2019-05-07T15:42:02.430Z,15.10
2019-05-07T15:44:31.965Z,15.20
2019-05-07T15:47:04.109Z,15.10
2019-05-07T15:49:33.675Z,15.10
2019-05-07T15:52:05.693Z,15.10
2019-05-07T15:54:35.273Z,15.10
2019-05-07T15:57:07.047Z,15.10
2019-05-07T15:59:36.589Z,15.10
2019-05-07T16:02:22.637Z,14.90
2019-05-07T16:04:52.201Z,14.90
2019-05-07T16:07:22.491Z,14.80
2019-05-07T16:09:52.586Z,14.80
2019-05-07T16:12:22.796Z,14.90
2019-05-07T16:14:52.593Z,14.90
2019-05-07T16:17:35.567Z,14.90
2019-05-07T16:20:05.292Z,14.80
2019-05-07T16:22:38.692Z,14.80
2019-05-07T16:25:08.279Z,14.60
2019-05-07T16:27:42.436Z,14.50
2019-05-07T16:30:14.273Z,14.50
2019-05-07T16:32:44.035Z,14.50
2019-05-07T16:35:16.147Z,14.20
2019-05-07T16:37:44.895Z,14.10
2019-05-07T16:40:14.526Z,14.00
2019-05-07T16:42:44.061Z,13.80
2019-05-07T16:45:13.922Z,13.70
2019-05-07T16:47:43.446Z,13.70
2019-05-07T16:50:15.077Z,13.70
2019-05-07T16:52:44.612Z,13.70
2019-05-07T16:55:14.212Z,13.60
2019-05-07T16:58:02.193Z,13.60
2019-05-07T17:00:38.555Z,13.50
2019-05-07T17:03:11.707Z,13.50
2019-05-07T17:05:42.872Z,13.50
2019-05-07T17:08:26.267Z,13.50
2019-05-07T17:10:55.822Z,13.50
2019-05-07T17:13:25.378Z,13.50
2019-05-07T17:15:56.126Z,13.40
2019-05-07T17:18:27.110Z,13.40
2019-05-07T17:20:57.727Z,13.40
2019-05-07T17:23:34.430Z,13.30
2019-05-07T17:25:58.678Z,13.20
2019-05-07T17:28:28.619Z,13.20
2019-05-07T17:30:58.326Z,13.00
2019-05-07T17:33:27.863Z,13.00
2019-05-07T17:35:57.454Z,12.90
2019-05-07T17:38:27.018Z,12.90
2019-05-07T17:41:09.165Z,12.80
2019-05-07T17:43:27.800Z,12.80
2019-05-07T17:45:57.378Z,12.70
2019-05-07T17:48:26.928Z,12.70
2019-05-07T17:51:18.174Z,12.60
2019-05-07T17:53:57.601Z,12.60
2019-05-07T17:56:18.966Z,12.50
2019-05-07T17:58:48.492Z,12.40
2019-05-07T18:01:21.687Z,12.30
2019-05-07T18:03:52.007Z,12.30
2019-05-07T18:06:21.585Z,12.20
2019-05-07T18:08:51.999Z,12.20
2019-05-07T18:11:24.187Z,12.10
2019-05-07T18:13:53.134Z,12.00
2019-05-07T18:16:32.585Z,11.90
2019-05-07T18:19:02.251Z,11.80
2019-05-07T18:21:32.574Z,11.80
2019-05-07T18:24:13.299Z,11.70
2019-05-07T18:26:33.918Z,11.60
2019-05-07T18:29:03.523Z,11.60
2019-05-07T18:31:47.548Z,11.50
2019-05-07T18:34:17.058Z,11.40
2019-05-07T18:36:46.690Z,11.30
2019-05-07T18:39:16.192Z,11.20
2019-05-07T18:41:45.744Z,11.10
2019-05-07T18:44:16.101Z,11.10
2019-05-07T18:46:45.832Z,11.10
2019-05-07T18:49:15.382Z,10.90
2019-05-07T18:51:44.942Z,10.90
2019-05-07T18:54:26.317Z,10.90
2019-05-07T18:56:45.853Z,10.90
2019-05-07T18:59:16.081Z,10.90
2019-05-07T19:01:45.703Z,10.80
2019-05-07T19:04:15.251Z,10.70
2019-05-07T19:06:44.807Z,10.70
2019-05-07T19:09:14.451Z,10.60
2019-05-07T19:11:44.039Z,10.50
2019-05-07T19:14:13.615Z,10.50
2019-05-07T19:16:43.239Z,10.60
2019-05-07T19:19:12.973Z,10.50
2019-05-07T19:21:42.553Z,10.40
2019-05-07T19:24:12.135Z,10.40
2019-05-07T19:26:42.118Z,10.30
2019-05-07T19:29:12.428Z,10.20
2019-05-07T19:31:42.231Z,10.20
2019-05-07T19:34:12.291Z,10.20
2019-05-07T19:36:42.406Z,10.10
2019-05-07T19:39:12.703Z,10.00
2019-05-07T19:41:43.042Z,9.80
2019-05-07T19:44:12.858Z,9.70
2019-05-07T19:46:42.369Z,9.50
2019-05-07T19:49:11.984Z,9.40
2019-05-07T19:51:42.791Z,9.30
2019-05-07T19:54:12.403Z,9.30
2019-05-07T19:56:42.596Z,9.20
2019-05-07T19:59:12.450Z,9.10
2019-05-07T20:01:49.406Z,9.00
2019-05-07T20:04:19.344Z,8.80
2019-05-07T20:06:48.954Z,8.70
2019-05-07T20:09:21.003Z,8.50
2019-05-07T20:11:52.312Z,8.40
2019-05-07T20:14:22.438Z,8.10
2019-05-07T20:16:53.142Z,8.00
2019-05-07T20:19:23.059Z,8.00
2019-05-07T20:21:52.652Z,7.90
2019-05-07T20:24:22.244Z,7.80
2019-05-07T20:26:52.665Z,7.70
2019-05-07T20:29:23.032Z,7.60
2019-05-07T20:31:53.288Z,7.50
2019-05-07T20:34:22.883Z,7.40
2019-05-07T20:36:52.439Z,7.30
2019-05-07T20:39:23.310Z,7.20
2019-05-07T20:41:53.011Z,7.20
2019-05-07T20:44:22.548Z,7.30
2019-05-07T20:46:53.616Z,7.30
2019-05-07T20:49:23.200Z,7.20
2019-05-07T20:51:52.786Z,7.20
2019-05-07T20:54:44.035Z,7.00
2019-05-07T20:57:25.694Z,6.90
2019-05-07T20:59:55.273Z,6.80
2019-05-07T21:02:24.798Z,6.70
2019-05-07T21:04:54.341Z,6.70
2019-05-07T21:07:23.911Z,6.60
2019-05-07T21:09:53.446Z,6.70
2019-05-07T21:12:23.024Z,6.80
2019-05-07T21:14:52.652Z,6.90
2019-05-07T21:17:22.718Z,6.80
2019-05-07T21:19:52.396Z,6.70
2019-05-07T21:22:22.700Z,6.60
2019-05-07T21:24:53.185Z,6.60
2019-05-07T21:27:22.935Z,6.60
2019-05-07T21:29:52.834Z,6.60
2019-05-07T21:32:23.128Z,6.50
2019-05-07T21:34:52.857Z,6.50
2019-05-07T21:37:23.042Z,6.60
2019-05-07T21:39:53.258Z,6.60
2019-05-07T21:42:23.050Z,6.50
2019-05-07T21:44:52.842Z,6.40
2019-05-07T21:47:22.433Z,6.50
2019-05-07T21:49:54.925Z,6.40
2019-05-07T21:52:24.188Z,6.20
2019-05-07T21:55:02.215Z,6.30
2019-05-07T21:57:56.096Z,6.20
2019-05-07T22:00:43.450Z,6.20
2019-05-07T22:03:15.326Z,6.10
2019-05-07T22:05:44.909Z,5.90
2019-05-07T22:08:14.449Z,5.80
2019-05-07T22:10:44.008Z,5.60
2019-05-07T22:13:13.558Z,5.60
2019-05-07T22:15:43.106Z,5.80
2019-05-07T22:18:12.678Z,5.70
2019-05-07T22:20:42.696Z,5.60
2019-05-07T22:23:12.279Z,5.50
2019-05-07T22:25:42.233Z,5.50
2019-05-07T22:28:13.375Z,5.60
2019-05-07T22:30:52.769Z,5.60
2019-05-07T22:33:30.882Z,5.50
2019-05-07T22:36:01.817Z,5.40
2019-05-07T22:38:32.379Z,5.20
2019-05-07T22:41:02.210Z,5.20
2019-05-07T22:43:31.959Z,5.10
2019-05-07T22:46:01.453Z,5.20
2019-05-07T22:48:32.474Z,5.40
2019-05-07T22:51:02.743Z,5.40
2019-05-07T22:53:32.863Z,5.40
2019-05-07T22:56:03.161Z,5.20
2019-05-07T22:58:41.866Z,5.30
2019-05-07T23:01:13.072Z,5.30
2019-05-07T23:03:43.050Z,5.10
2019-05-07T23:06:12.655Z,4.90
2019-05-07T23:08:42.598Z,4.80
2019-05-07T23:11:12.463Z,4.80
2019-05-07T23:13:42.700Z,4.60
2019-05-07T23:16:12.741Z,4.60
2019-05-07T23:18:43.056Z,4.50
2019-05-07T23:21:12.571Z,4.40
2019-05-07T23:23:42.383Z,4.30
2019-05-07T23:26:14.653Z,4.20
2019-05-07T23:28:43.123Z,4.20
2019-05-07T23:31:12.651Z,4.10
2019-05-07T23:33:42.212Z,4.10
2019-05-07T23:36:12.911Z,4.00
2019-05-07T23:38:42.733Z,4.00
2019-05-07T23:41:27.412Z,4.10
2019-05-07T23:44:13.847Z,3.90
2019-05-07T23:46:44.766Z,4.00
2019-05-07T23:49:14.649Z,4.10
2019-05-07T23:51:44.183Z,4.00
2019-05-07T23:54:13.728Z,4.10
2019-05-07T23:56:43.267Z,4.10
2019-05-07T23:59:14.909Z,3.90
